createdAt,value
2017-12-27T00:02:42.929Z,4.87
2017-12-27T00:17:39.711Z,4.84
2017-12-27T00:32:36.617Z,4.70
2017-12-27T00:47:34.389Z,4.55
2017-12-27T01:02:36.465Z,4.63
2017-12-27T01:17:34.761Z,4.57
2017-12-27T01:32:34.319Z,4.53
2017-12-27T01:47:34.957Z,4.50
2017-12-27T02:02:36.690Z,4.46
2017-12-27T02:17:34.714Z,4.34
2017-12-27T02:32:34.321Z,4.39
2017-12-27T02:47:34.334Z,4.40
2017-12-27T03:02:34.885Z,4.29
2017-12-27T03:17:34.675Z,4.22
2017-12-27T03:32:34.811Z,4.20
2017-12-27T03:47:34.540Z,4.13
2017-12-27T04:02:35.109Z,4.02
2017-12-27T04:17:35.102Z,3.94
2017-12-27T04:32:35.030Z,3.87
2017-12-27T04:47:34.387Z,3.85
2017-12-27T05:02:34.383Z,3.83
2017-12-27T05:17:35.311Z,3.80
2017-12-27T05:32:35.167Z,3.76
2017-12-27T05:47:36.656Z,3.71
2017-12-27T06:02:34.516Z,3.60
2017-12-27T06:17:34.444Z,3.80
2017-12-27T06:32:36.431Z,4.41
2017-12-27T06:47:34.879Z,5.78
2017-12-27T07:17:34.757Z,10.17
2017-12-27T07:32:34.601Z,10.20
2017-12-27T07:47:34.975Z,9.95
2017-12-27T08:02:36.973Z,8.58
2017-12-27T08:17:34.690Z,7.82
2017-12-27T08:32:34.855Z,8.02
2017-12-27T08:47:37.308Z,10.43
2017-12-27T09:02:41.232Z,12.48
2017-12-27T09:17:36.882Z,13.17
2017-12-27T09:32:35.028Z,14.10
2017-12-27T09:47:34.321Z,14.74
2017-12-27T10:02:35.341Z,14.52
2017-12-27T10:17:34.120Z,15.48
2017-12-27T10:32:34.273Z,16.17
2017-12-27T10:47:34.711Z,15.27
2017-12-27T11:02:36.472Z,15.03
2017-12-27T11:17:34.559Z,13.89
2017-12-27T11:32:34.605Z,13.70
2017-12-27T11:47:35.012Z,12.77
2017-12-27T12:02:34.899Z,12.51
2017-12-27T12:17:34.589Z,12.70
2017-12-27T12:32:34.497Z,12.94
2017-12-27T12:47:34.991Z,13.26
2017-12-27T13:02:34.960Z,12.88
2017-12-27T13:17:34.882Z,12.64
2017-12-27T13:32:37.024Z,12.08
2017-12-27T13:47:34.877Z,11.82
2017-12-27T14:02:40.183Z,11.06
2017-12-27T14:17:33.819Z,10.06
2017-12-27T14:32:37.957Z,10.06
2017-12-27T14:47:34.397Z,9.99
2017-12-27T15:02:35.766Z,9.76
2017-12-27T15:17:34.617Z,10.44
2017-12-27T15:32:34.346Z,9.61
2017-12-27T15:47:34.711Z,9.22
2017-12-27T16:02:34.963Z,9.09
2017-12-27T16:17:34.564Z,8.86
2017-12-27T16:32:33.531Z,8.53
2017-12-27T16:47:34.863Z,8.38
2017-12-27T17:02:35.237Z,8.41
2017-12-27T17:17:34.733Z,8.32
2017-12-27T17:32:34.778Z,8.29
2017-12-27T17:47:34.199Z,8.15
2017-12-27T18:02:33.835Z,8.15
2017-12-27T18:17:33.567Z,8.00
2017-12-27T18:32:35.214Z,7.90
2017-12-27T18:47:34.460Z,7.71
2017-12-27T19:02:34.604Z,7.47
2017-12-27T19:17:33.998Z,7.45
2017-12-27T19:32:34.192Z,7.36
2017-12-27T19:47:34.814Z,7.37
2017-12-27T20:02:36.024Z,7.27
2017-12-27T20:17:33.462Z,7.12
2017-12-27T20:32:34.693Z,6.92
2017-12-27T21:02:34.971Z,6.69
2017-12-27T21:17:35.418Z,6.55
2017-12-27T21:47:41.406Z,6.22
2017-12-27T22:02:34.219Z,5.86
2017-12-27T23:32:34.301Z,5.59
